Terminal Aerodrome Forecast
Issued by NWS Louisville, KY

Home | Current Version | Previous Version | Text Only | Print | Product List | Glossary On
Versions: 1 2 3 4 5 6 7 8 9 10 11 12 13 14 15 16 17 18 19
824
FTUS43 KLMK 202336
TAFBWG
TAF
KBWG 202336Z 2100/2124 00000KT P6SM BKN100
     FM210700 00000KT 3SM BR SCT250
     FM211300 VRB03KT P6SM SCT040 SCT250=

USA.gov is the U.S. government's official web portal to all federal, state and local government web resources and services.